Latest Weather Observations for Yeppoon

IDQ60801

Issued at 8:05 pm EST Monday 28 July 2014 (issued every 30 minutes, with the page automatically refreshed every 10 minutes)

About weather observations | Map of weather stations | Latest weather observations for QLD | Other Formats
Station Details ID: 033294 Name: YEPPOON THE ESPLANADE Lat: -23.14 Lon: 150.75 Height: 5.5 m
Data from the previous 72 hours. | See also: Recent months at Yeppoon
Date/Time
EST
Temp
°C
App
Temp
°C
Dew
Point
Rel
Hum
%
Delta-T
°C
Wind Press
QNH
hPa
Press
MSL
hPa
Rain
since 9 am
mm
Dir
 
Spd
km/h
Gust
km/h
Spd
kts
Gust
kts
28/08:00pm 17.8 18.6 15.9 89 1.1 NNE 6 7 3 4 1021.6 1021.6 0.0
28/07:30pm 19.2 19.5 17.0 87 1.3 N 11 13 6 7 1021.5 - 0.0
28/07:00pm 19.4 19.9 17.4 88 1.2 NNE 11 15 6 8 1021.2 1021.2 0.0
28/06:30pm 19.5 19.6 17.4 88 1.3 NNE 13 17 7 9 1020.9 - 0.0
28/06:00pm 19.5 18.7 17.2 86 1.4 NNE 17 19 9 10 1020.6 1020.6 0.0
28/05:30pm 19.7 18.9 16.0 79 2.2 NNE 15 19 8 10 1020.4 - 0.0
28/05:00pm 19.8 19.0 16.1 79 2.2 NNE 15 17 8 9 1020.3 1020.3 0.0
28/04:30pm 20.2 20.1 16.0 77 2.5 NE 11 13 6 7 1020.0 - 0.0
28/04:00pm 20.7 20.7 16.2 75 2.7 NE 11 15 6 8 1019.9 1019.9 0.0
28/03:30pm 21.2 20.7 16.0 72 3.1 NE 13 17 7 9 1019.8 - 0.0
28/03:00pm 21.8 21.5 15.4 67 3.8 ENE 11 15 6 8 1019.9 1019.9 0.0
28/02:30pm 22.2 22.5 15.9 67 3.8 E 9 13 5 7 1020.3 - 0.0
28/02:00pm 21.8 20.7 14.4 63 4.3 E 13 19 7 10 1020.6 1020.6 0.0
28/01:30pm 21.8 21.6 15.8 68 3.6 E 11 15 6 8 1021.1 - 0.0
28/01:00pm 21.6 21.3 15.4 68 3.7 E 11 15 6 8 1021.7 1021.7 0.0
28/12:30pm 21.5 20.6 14.9 66 3.9 E 13 17 7 9 1022.3 - 0.0
28/12:00pm 21.4 19.4 14.0 62 4.3 E 17 20 9 11 1022.8 1022.8 0.0
28/11:30am 21.6 20.5 14.2 62 4.3 E 13 19 7 10 1023.2 - 0.0
28/11:00am 21.1 19.1 13.8 63 4.2 E 17 22 9 12 1023.7 1023.7 0.0
28/10:30am 21.0 19.8 14.1 64 4.0 SE 13 20 7 11 1024.0 - 0.0
28/10:00am 20.2 19.1 14.3 69 3.4 SSE 13 19 7 10 1024.1 1024.1 0.0
28/09:30am 19.1 18.5 14.6 75 2.6 SSE 11 17 6 9 1024.2 - 0.0
28/09:00am 16.8 16.5 14.5 86 1.3 SSW 9 13 5 7 1024.2 1024.2 0.2
28/08:30am 16.7 16.9 14.8 88 1.1 SW 7 11 4 6 1023.9 - 0.2
28/08:00am 15.5 15.2 14.3 92 0.7 SW 9 13 5 7 1023.6 1023.6 0.2
28/07:30am 13.8 13.5 13.3 97 0.3 WSW 7 13 4 7 1023.4 - 0.2
28/07:00am 12.2 10.9 11.4 95 0.4 W 9 11 5 6 1023.1 1023.1 0.2
28/06:30am 13.0 11.6 12.3 95 0.4 W 11 13 6 7 1022.6 - 0.2
28/06:00am 13.2 12.0 12.8 97 0.2 W 11 15 6 8 1022.4 1022.4 0.2
28/05:30am 12.9 11.3 12.7 99 0.1 W 13 17 7 9 1021.9 - 0.2
28/05:00am 12.0 10.0 11.6 97 0.2 W 13 15 7 8 1021.9 1021.9 0.2
28/04:30am 11.8 10.2 11.4 97 0.2 W 11 15 6 8 1021.6 - 0.0
28/04:00am 12.6 11.6 12.2 97 0.2 W 9 13 5 7 1021.6 1021.6 0.0
28/03:30am 12.0 10.3 11.2 95 0.4 W 11 13 6 7 1021.8 - 0.0
28/03:00am 12.3 12.1 11.7 96 0.3 W 4 11 2 6 1021.8 1021.8 0.0
28/02:30am 12.4 11.8 11.8 96 0.3 W 6 7 3 4 1021.8 - 0.0
28/02:00am 12.7 12.1 12.3 97 0.2 W 7 9 4 5 1021.9 1021.9 0.0
28/01:30am 13.3 12.8 12.7 96 0.3 W 7 9 4 5 1022.3 - 0.0
28/01:00am 13.6 12.9 13.1 97 0.3 W 9 11 5 6 1022.6 1022.6 0.0
28/12:30am 14.3 14.2 13.8 97 0.3 WSW 7 9 4 5 1022.7 - 0.0
28/12:00am 14.1 13.9 13.7 97 0.2 W 7 11 4 6 1023.0 1023.0 0.0
 
Date/Time
EST
Temp
°C
App
Temp
°C
Dew
Point
Rel
Hum
%
Delta-T
°C
Wind Press
QNH
hPa
Press
MSL
hPa
Rain
since 9 am
mm
Dir
 
Spd
km/h
Gust
km/h
Spd
kts
Gust
kts
27/11:30pm 14.3 13.8 13.8 97 0.3 W 9 13 5 7 1023.2 - 0.0
27/11:00pm 14.1 13.2 13.6 97 0.3 WNW 11 15 6 8 1023.3 1023.3 0.0
27/10:30pm 14.6 13.8 13.9 96 0.4 W 11 13 6 7 1023.4 - 0.0
27/10:00pm 14.8 15.0 14.1 96 0.4 W 6 9 3 5 1023.3 1023.3 0.0
27/09:30pm 15.1 15.2 14.4 96 0.4 W 7 9 4 5 1023.2 - 0.0
27/09:00pm 15.6 16.1 14.9 96 0.4 SW 6 9 3 5 1023.1 1023.1 0.0
27/08:30pm 16.0 16.9 15.1 94 0.5 SW 4 9 2 5 1022.9 - 0.0
27/08:00pm 16.3 16.7 15.3 94 0.6 WSW 7 11 4 6 1022.6 1022.6 0.0
27/07:30pm 17.0 18.9 15.8 93 0.7 CALM 0 0 0 0 1022.1 - 0.0
27/07:00pm 18.8 20.1 17.0 89 1.1 NNE 6 7 3 4 1021.9 1021.9 0.0
27/06:30pm 19.0 19.6 16.8 87 1.3 N 9 13 5 7 1021.5 - 0.0
27/06:00pm 19.5 19.0 16.8 84 1.6 NNE 15 17 8 9 1021.0 1021.0 0.0
27/05:30pm 19.8 18.6 17.0 84 1.7 NNE 19 28 10 15 1020.7 - 0.0
27/05:00pm 20.1 18.5 16.4 79 2.2 NNE 20 22 11 12 1020.6 1020.6 0.0
27/04:30pm 20.6 18.8 15.5 72 3.0 N 19 20 10 11 1020.5 - 0.0
27/04:00pm 20.3 18.8 16.8 80 2.1 N 20 22 11 12 1020.3 1020.3 0.0
27/03:30pm 20.4 19.8 17.5 83 1.8 N 17 20 9 11 1020.4 - 0.0
27/03:00pm 21.6 21.8 16.8 74 2.9 NE 11 15 6 8 1020.4 1020.4 0.0
27/02:30pm 21.5 21.6 16.5 73 3.0 NE 11 13 6 7 1020.6 - 0.0
27/02:00pm 20.7 21.7 17.8 83 1.8 N 9 11 5 6 1021.0 1021.0 0.0
27/01:30pm 19.6 19.8 17.6 88 1.2 NNE 13 15 7 8 1021.5 - 0.0
27/01:00pm 19.3 19.7 17.3 88 1.2 NNE 11 15 6 8 1022.0 1022.0 0.0
27/12:30pm 19.5 20.3 17.2 86 1.4 NNE 9 13 5 7 1022.4 - 0.0
27/12:00pm 19.1 19.8 17.1 88 1.2 NE 9 13 5 7 1022.8 1022.8 0.0
27/11:30am 19.3 19.7 17.3 88 1.2 NE 11 15 6 8 1023.4 - 0.0
27/11:00am 20.6 20.8 16.8 79 2.3 E 11 15 6 8 1023.8 1023.8 0.0
27/10:30am 21.4 22.4 16.8 75 2.8 E 7 11 4 6 1024.1 - 0.0
27/10:00am 20.5 21.5 16.9 80 2.2 ESE 7 13 4 7 1024.3 1024.3 0.0
27/09:30am 19.6 20.2 16.9 84 1.6 ESE 9 15 5 8 1024.5 - 0.0
27/09:00am 18.5 19.1 16.8 90 1.0 SE 9 15 5 8 1024.5 1024.5 0.0
27/08:30am 18.1 19.1 16.9 93 0.7 S 7 9 4 5 1024.4 - 0.0
27/08:00am 17.7 18.3 16.9 95 0.5 SSE 9 11 5 6 1024.0 1024.0 0.0
27/07:30am 17.5 18.6 17.0 97 0.3 S 7 13 4 7 1023.9 - 0.0
27/07:00am 17.5 18.8 17.0 97 0.3 S 6 9 3 5 1023.5 1023.5 0.0
27/06:30am 17.6 20.0 17.1 97 0.3 CALM 0 0 0 0 1023.4 - 0.0
27/06:00am 17.4 19.8 17.1 98 0.2 CALM 0 0 0 0 1023.1 1023.1 0.0
27/05:30am 17.4 19.4 16.9 97 0.3 SSW 2 7 1 4 1023.0 - 0.0
27/05:00am 17.4 19.4 16.9 97 0.3 SSW 2 6 1 3 1022.9 1022.9 0.0
27/04:30am 17.2 18.1 16.7 97 0.3 WSW 7 9 4 5 1022.8 - 0.0
27/04:00am 16.6 17.2 15.9 96 0.4 WSW 7 9 4 5 1022.7 1022.7 0.0
27/03:30am 16.8 17.8 16.3 97 0.3 WSW 6 9 3 5 1022.6 - 0.0
27/03:00am 16.2 17.3 15.7 97 0.3 W 4 7 2 4 1022.9 1022.9 0.0
27/02:30am 16.3 17.5 15.8 97 0.3 W 4 7 2 4 1023.0 - 0.0
27/02:00am 16.2 16.8 15.7 97 0.3 W 7 9 4 5 1023.3 1023.3 0.0
27/01:30am 16.3 16.9 15.8 97 0.3 W 7 9 4 5 1023.6 - 0.0
27/01:00am 16.7 17.9 16.0 96 0.4 W 4 7 2 4 1023.9 1023.9 0.0
27/12:30am 16.9 17.8 16.2 96 0.4 WSW 6 7 3 4 1024.2 - 0.0
27/12:00am 17.1 19.3 16.4 96 0.4 CALM 0 0 0 0 1024.5 1024.5 0.0
 
Date/Time
EST
Temp
°C
App
Temp
°C
Dew
Point
Rel
Hum
%
Delta-T
°C
Wind Press
QNH
hPa
Press
MSL
hPa
Rain
since 9 am
mm
Dir
 
Spd
km/h
Gust
km/h
Spd
kts
Gust
kts
26/11:30pm 17.4 18.5 16.6 95 0.5 W 6 7 3 4 1024.5 - 0.0
26/11:00pm 17.6 19.5 16.8 95 0.5 W 2 7 1 4 1024.6 1024.6 0.0
26/10:30pm 17.8 18.8 16.8 94 0.6 W 7 9 4 5 1024.7 - 0.0
26/10:00pm 17.8 19.0 16.8 94 0.6 W 6 48 3 26 1024.9 1024.9 0.0
26/09:30pm 18.0 20.3 16.8 93 0.7 CALM 0 0 0 0 1025.0 - 0.0
26/09:00pm 18.1 19.3 16.9 93 0.7 WSW 6 7 3 4 1025.3 1025.3 0.0
26/08:30pm 18.3 19.6 17.0 92 0.8 SW 6 7 3 4 1025.3 - 0.0
26/08:00pm 18.7 20.8 17.2 91 0.9 SE 2 7 1 4 1024.8 1024.8 0.0
26/07:30pm 18.6 21.0 17.1 91 0.9 CALM 0 0 0 0 1025.0 - 0.0
26/07:00pm 18.9 21.0 17.2 90 1.0 W 2 6 1 3 1024.8 1024.8 0.0
26/06:30pm 18.9 20.6 17.1 89 1.1 SSW 4 7 2 4 1024.6 - 0.0
26/06:00pm 18.9 21.4 17.2 90 1.0 CALM 0 0 0 0 1024.0 1024.0 0.0
26/05:30pm 19.2 20.5 17.2 88 1.2 S 6 7 3 4 1023.9 - 0.0
26/05:00pm 19.7 21.4 17.2 85 1.5 S 4 7 2 4 1023.9 1023.9 0.0
26/04:30pm 20.0 21.4 17.4 85 1.6 S 6 7 3 4 1023.5 - 0.0
26/04:00pm 20.2 21.0 17.2 83 1.8 SSE 9 11 5 6 1023.3 1023.3 0.0
26/03:30pm 20.4 21.1 17.1 81 2.0 SSE 9 13 5 7 1023.4 - 0.0
26/03:00pm 20.5 21.6 17.0 80 2.1 ESE 7 11 4 6 1023.3 1023.3 0.0
26/02:30pm 20.7 21.5 17.3 81 2.1 SE 9 11 5 6 1023.3 - 0.0
26/02:00pm 21.0 21.8 17.2 79 2.3 SSE 9 13 5 7 1023.5 1023.5 0.0
26/01:30pm 20.8 21.9 17.0 79 2.3 SSE 7 11 4 6 1023.7 - 0.0
26/01:00pm 20.8 21.6 17.2 80 2.2 SSE 9 11 5 6 1024.1 1024.1 0.0
26/12:30pm 20.3 21.0 17.0 81 2.0 SSE 9 13 5 7 1024.3 - 0.0
26/12:00pm 20.1 20.0 17.0 82 1.9 SSE 13 17 7 9 1024.6 1024.6 0.0
26/11:30am 19.7 20.0 16.9 84 1.7 SSE 11 15 6 8 1025.2 - 0.0
26/11:00am 19.8 20.0 16.8 83 1.8 SE 11 17 6 9 1025.3 1025.3 0.0
26/10:30am 19.7 20.1 17.2 85 1.5 SE 11 15 6 8 1025.6 - 0.0
26/10:00am 19.2 20.3 17.2 88 1.2 SE 7 11 4 6 1025.7 1025.7 0.0
26/09:30am 18.5 19.7 16.8 90 1.0 SSW 6 7 3 4 1025.7 - 0.0
26/09:00am 17.8 18.9 16.5 92 0.8 WSW 6 9 3 5 1025.7 1025.7 0.2
26/08:30am 17.3 19.4 16.3 94 0.6 CALM 0 6 0 3 1025.4 - 0.2
26/08:00am 17.0 17.7 16.1 94 0.5 SW 7 9 4 5 1025.4 1025.4 0.2
26/07:30am 16.9 17.5 15.9 94 0.6 SW 7 9 4 5 1025.2 - 0.2
26/07:00am 16.6 16.8 15.7 94 0.5 SSW 9 13 5 7 1025.0 1025.0 0.2
26/06:30am 16.2 17.6 15.5 96 0.4 SW 2 9 1 5 1024.8 - 0.2
26/06:00am 16.2 16.7 15.5 96 0.4 SW 7 11 4 6 1025.0 1025.0 0.2
26/05:30am 15.8 17.2 15.3 97 0.3 SW 2 7 1 4 1024.4 - 0.2
26/05:00am 15.6 16.1 15.1 97 0.3 SW 6 9 3 5 1024.2 1024.2 0.2
26/04:30am 15.8 16.4 15.3 97 0.3 W 6 7 3 4 1024.1 - 0.2
26/04:00am 15.9 16.3 15.2 96 0.4 W 7 9 4 5 1024.3 1024.3 0.2
26/03:30am 16.0 16.4 15.3 96 0.4 W 7 9 4 5 1024.3 - 0.2
26/03:00am 16.3 17.1 15.8 97 0.3 W 6 9 3 5 1024.5 1024.5 0.2
26/02:30am 16.3 16.7 15.4 94 0.5 W 7 9 4 5 1024.5 - 0.2
26/02:00am 16.6 17.2 15.9 96 0.4 WSW 7 9 4 5 1024.6 1024.6 0.2
26/01:30am 16.3 16.8 15.6 96 0.4 WSW 7 9 4 5 1025.1 - 0.2
26/01:00am 16.6 17.4 15.9 96 0.4 SSW 6 7 3 4 1025.2 1025.2 0.2
26/12:30am 16.5 16.8 16.0 97 0.3 W 9 11 5 6 1025.5 - 0.2
26/12:00am 16.9 17.2 16.0 94 0.5 W 9 50 5 27 1025.5 1025.5 0.0
 
Date/Time
EST
Temp
°C
App
Temp
°C
Dew
Point
Rel
Hum
%
Delta-T
°C
Wind Press
QNH
hPa
Press
MSL
hPa
Rain
since 9 am
mm
Dir
 
Spd
km/h
Gust
km/h
Spd
kts
Gust
kts
25/11:30pm 16.9 17.6 16.0 94 0.5 W 7 9 4 5 1025.6 - 0.0
25/11:00pm 17.2 18.0 16.4 95 0.5 SW 7 9 4 5 1025.7 1025.7 0.0
25/10:30pm 17.2 18.0 16.4 95 0.5 SW 7 9 4 5 1025.9 - 0.0
25/10:00pm 17.6 18.6 16.8 95 0.5 SW 7 9 4 5 1025.9 1025.9 0.0
25/09:30pm 18.2 19.9 17.2 94 0.6 SSE 4 7 2 4 1025.7 - 0.0
25/09:00pm 17.6 18.6 16.4 93 0.7 SSW 6 7 3 4 1025.7 1025.7 0.0
25/08:30pm 17.3 18.1 15.9 91 0.8 SW 6 9 3 5 1025.6 - 0.0

Other Formats:

Comma delimited format used in spreadsheet applications
http://www.bom.gov.au/fwo/IDQ60801/IDQ60801.94373.axf

JavaScript Object Notation format (JSON) in row-major order
http://www.bom.gov.au/fwo/IDQ60801/IDQ60801.94373.json